Terminal Aerodrome Forecast
Issued by NWS

Home | Current Version | Previous Version | Text Only | Print | Product List | Glossary On
Versions: 1 2 3 4 5 6 7 8 9 10 11 12 13 14 15 16 17
000
FTUS43 KGRR 312340
TAFJXN
TAF
KJXN 312340Z 0100/0124 01007KT P6SM FEW050
     FM011200 34007KT P6SM BKN030
     FM011400 01011KT P6SM BKN030
     FM012300 02009KT P6SM SCT030=

USA.gov is the U.S. government's official web portal to all federal, state and local government web resources and services.